Pensacola Regional Airport
KPNS : now visible

Airfield :











YOU CAN JOIN US ON...

 
LOGIN :

Register | Disclaimer

   EN    FR    IT 

 









Legend :    VFR   Marginal VFR   IFR   Intensive IFR   Very Intensive IFR
Visi :
Ceiling :
>= 8 km
>= 3000ft
5 to 8 km
1000 to 3000 ft
1500m to 5 km
500 to 1000 ft
800 to 1500m
200 to 500 ft
< 800m
< 200 ft
Symbols :   Thunderstorms  Fog  Heavy snow  Heavy precipitations  Wind > 20 kt






- Airport Elevation : 121 ft
- IATA code : PNS


KPNS - Pensacola Regional

CURRENT METAR :
  • 021353Z 01007KT 1 1/2SM BR OVC003 15/14 A3014 RMK AO2 SLP208 T01500144

EXPIRED METARs :
  • 021338Z 35009KT 1 3/4SM BR OVC004 15/14 A3014 RMK AO2 T01500139
  • 021332Z 36010KT 5SM BR OVC004 16/14 A3014 RMK AO2 T01610144
  • 021253Z 35008KT 10SM OVC003 17/15 A3013 RMK AO2 SLP206 T01670150
  • 021230Z 01003KT 10SM OVC004 17/15 A3012 RMK AO2 T01670150
  • 021153Z AUTO 00000KT 10SM OVC005 17/15 A3011 RMK AO2 SLP199 T01670150 10167 20156 56006

TAF KPNS
Valid from the 02 at 14:00 until the 03 at 12:00 UTC


021357Z 0214/0312 01007KT 1 1/2SM BR OVC003
FM021600 11007KT P6SM BKN010
FM022100 19009KT P6SM VCSH BKN010
FM030300 26011KT 6SM SHRA BR BKN015
KZJX FIR / North America



MET'MAP, your aeronautical weather chart ! - Copyright ORBIFLY December 2007 - Disclaimer

ORBIFLY MET'MAP TEAM :

Programming & Development : Alexandra Zaïnal
Original concept : Baudouin d'Aumeries
Technical & hardware support : Manuel Goepfert
Assistance : Marc-Olivier Méhu




SOURCES & CREDITS :

   NOAA       Earth
Advisory